AMX783 KLAX-MMGL
Flight info
| Callsign | AMX783 |
|---|---|
| Flight time | 2h 37m |
| Altitude | 37000 |
| Route | PNDAH2 OTAYY DCT TIJ UT4 LMM UJ3 MZT UJ7 AMULA AMULA1B |
| Aircraft | B38M/M-SDE1FGHILORVWXY/HB1 |
Departure
| Time | 2026-04-23 02:35 |
|---|---|
| Airport | Los Angeles International Airport (KLAX) |
Arrival
| Time | 2026-04-23 05:12 |
|---|---|
| Airport | Guadalajara International Airport (MMGL) |
| Time | Latitude | Longitude | Altitude | Speed | Heading |
|---|---|---|---|---|---|
| 2026-04-23 01:57 | 33.94686 | -118.40988 | 98 ft | 0 kts | 219° |
| 2026-04-23 02:07 | 33.94686 | -118.40987 | 98 ft | 0 kts | 219° |
| 2026-04-23 02:20 | 33.94687 | -118.40987 | 98 ft | 0 kts | 219° |
| 2026-04-23 02:24 | 33.94696 | -118.40978 | 98 ft | 4 kts | 216° |
| 2026-04-23 02:24 | 33.94717 | -118.40963 | 97 ft | 4 kts | 200° |
| 2026-04-23 02:24 | 33.94738 | -118.40960 | 98 ft | 4 kts | 160° |
| 2026-04-23 02:24 | 33.94750 | -118.40970 | 100 ft | 0 kts | 111° |
| 2026-04-23 02:28 | 33.94750 | -118.40971 | 100 ft | 0 kts | 111° |
| 2026-04-23 02:29 | 33.94747 | -118.40963 | 101 ft | 2 kts | 107° |
| 2026-04-23 02:29 | 33.94746 | -118.40931 | 99 ft | 5 kts | 86° |
| 2026-04-23 02:29 | 33.94764 | -118.40886 | 100 ft | 7 kts | 30° |
| 2026-04-23 02:30 | 33.94818 | -118.40878 | 102 ft | 7 kts | 20° |
| 2026-04-23 02:30 | 33.94838 | -118.40834 | 103 ft | 6 kts | 78° |
| 2026-04-23 02:30 | 33.94845 | -118.40772 | 102 ft | 9 kts | 82° |
| 2026-04-23 02:30 | 33.94856 | -118.40677 | 102 ft | 13 kts | 82° |
| 2026-04-23 02:31 | 33.94867 | -118.40556 | 102 ft | 15 kts | 90° |
| 2026-04-23 02:31 | 33.94878 | -118.40450 | 101 ft | 13 kts | 82° |
| 2026-04-23 02:31 | 33.94891 | -118.40339 | 102 ft | 14 kts | 82° |
| 2026-04-23 02:31 | 33.94902 | -118.40238 | 102 ft | 11 kts | 83° |
| 2026-04-23 02:32 | 33.94910 | -118.40145 | 102 ft | 10 kts | 83° |
| 2026-04-23 02:32 | 33.94914 | -118.40102 | 102 ft | 0 kts | 83° |
| 2026-04-23 02:33 | 33.94915 | -118.40100 | 102 ft | 0 kts | 83° |
| 2026-04-23 02:33 | 33.94915 | -118.40098 | 102 ft | 0 kts | 83° |
| 2026-04-23 02:33 | 33.94915 | -118.40096 | 102 ft | 1 kts | 82° |
| 2026-04-23 02:34 | 33.94919 | -118.40080 | 101 ft | 2 kts | 65° |
| 2026-04-23 02:34 | 33.94930 | -118.40068 | 103 ft | 4 kts | 28° |
| 2026-04-23 02:34 | 33.94974 | -118.40065 | 107 ft | 8 kts | 356° |
| 2026-04-23 02:34 | 33.95024 | -118.40114 | 111 ft | 14 kts | 274° |
| 2026-04-23 02:35 | 33.95000 | -118.40354 | 111 ft | 61 kts | 263° |
| 2026-04-23 02:35 | 33.94917 | -118.41170 | 110 ft | 134 kts | 263° |
| 2026-04-23 02:35 | 33.94784 | -118.42456 | 455 ft | 165 kts | 263° |
| 2026-04-23 02:35 | 33.94626 | -118.43886 | 1252 ft | 176 kts | 263° |
| 2026-04-23 02:36 | 33.94450 | -118.45370 | 2183 ft | 183 kts | 262° |
| 2026-04-23 02:36 | 33.94299 | -118.46956 | 2772 ft | 202 kts | 269° |
| 2026-04-23 02:36 | 33.94262 | -118.48770 | 3242 ft | 229 kts | 269° |
| 2026-04-23 02:36 | 33.94225 | -118.50078 | 3635 ft | 243 kts | 269° |
| 2026-04-23 02:37 | 33.94094 | -118.52181 | 4315 ft | 261 kts | 266° |
| 2026-04-23 02:37 | 33.93935 | -118.54368 | 5292 ft | 262 kts | 266° |
| 2026-04-23 02:37 | 33.93773 | -118.56577 | 6253 ft | 266 kts | 268° |
| 2026-04-23 02:37 | 33.93605 | -118.58801 | 7224 ft | 268 kts | 266° |
| 2026-04-23 02:38 | 33.93237 | -118.60991 | 8195 ft | 270 kts | 248° |
| 2026-04-23 02:38 | 33.92112 | -118.62808 | 9183 ft | 277 kts | 223° |
| 2026-04-23 02:38 | 33.90379 | -118.63892 | 10083 ft | 290 kts | 199° |
| 2026-04-23 02:38 | 33.88293 | -118.64085 | 10607 ft | 315 kts | 181° |
| 2026-04-23 02:39 | 33.86042 | -118.63896 | 10968 ft | 335 kts | 181° |
| 2026-04-23 02:39 | 33.83692 | -118.63245 | 11388 ft | 359 kts | 159° |
| 2026-04-23 02:39 | 33.81513 | -118.61650 | 11956 ft | 374 kts | 149° |
| 2026-04-23 02:39 | 33.79346 | -118.59890 | 12674 ft | 378 kts | 150° |
| 2026-04-23 02:40 | 33.77149 | -118.58110 | 13370 ft | 384 kts | 150° |
| 2026-04-23 02:40 | 33.74924 | -118.56305 | 14027 ft | 389 kts | 150° |
| 2026-04-23 02:40 | 33.72672 | -118.54477 | 14665 ft | 392 kts | 150° |
| 2026-04-23 02:40 | 33.70477 | -118.52493 | 15320 ft | 400 kts | 138° |
| 2026-04-23 02:41 | 33.68798 | -118.49806 | 15993 ft | 408 kts | 121° |
| 2026-04-23 02:41 | 33.67474 | -118.46772 | 16573 ft | 413 kts | 120° |
| 2026-04-23 02:41 | 33.66138 | -118.43710 | 17177 ft | 416 kts | 120° |
| 2026-04-23 02:41 | 33.64799 | -118.40614 | 17784 ft | 420 kts | 120° |
| 2026-04-23 02:42 | 33.63451 | -118.37490 | 18360 ft | 424 kts | 120° |
| 2026-04-23 02:42 | 33.62091 | -118.34333 | 18875 ft | 427 kts | 120° |
| 2026-04-23 02:42 | 33.60723 | -118.31161 | 19378 ft | 430 kts | 120° |
| 2026-04-23 02:42 | 33.59341 | -118.27960 | 19877 ft | 433 kts | 120° |
| 2026-04-23 02:43 | 33.57951 | -118.24742 | 20375 ft | 436 kts | 121° |
| 2026-04-23 02:43 | 33.56550 | -118.21502 | 20854 ft | 439 kts | 121° |
| 2026-04-23 02:43 | 33.55138 | -118.18239 | 21342 ft | 443 kts | 121° |
| 2026-04-23 02:43 | 33.53718 | -118.14950 | 21814 ft | 446 kts | 121° |
| 2026-04-23 02:44 | 33.52293 | -118.11635 | 22279 ft | 449 kts | 121° |
| 2026-04-23 02:44 | 33.50857 | -118.08302 | 22748 ft | 452 kts | 121° |
| 2026-04-23 02:44 | 33.49409 | -118.04943 | 23208 ft | 455 kts | 121° |
| 2026-04-23 02:44 | 33.47946 | -118.01568 | 23654 ft | 457 kts | 123° |
| 2026-04-23 02:45 | 33.46090 | -117.98518 | 23994 ft | 450 kts | 140° |
| 2026-04-23 02:45 | 33.43811 | -117.95956 | 24335 ft | 451 kts | 143° |
| 2026-04-23 02:45 | 33.41486 | -117.93409 | 24677 ft | 454 kts | 143° |
| 2026-04-23 02:45 | 33.39136 | -117.90871 | 25058 ft | 456 kts | 144° |
| 2026-04-23 02:46 | 33.36762 | -117.88337 | 25421 ft | 458 kts | 144° |
| 2026-04-23 02:46 | 33.34371 | -117.85798 | 25766 ft | 461 kts | 144° |
| 2026-04-23 02:46 | 33.31966 | -117.83248 | 26111 ft | 464 kts | 144° |
| 2026-04-23 02:46 | 33.29543 | -117.80683 | 26453 ft | 466 kts | 144° |
| 2026-04-23 02:47 | 33.27107 | -117.78105 | 26779 ft | 469 kts | 145° |
| 2026-04-23 02:47 | 33.24654 | -117.75512 | 27098 ft | 472 kts | 145° |
| 2026-04-23 02:47 | 33.22189 | -117.72909 | 27417 ft | 475 kts | 145° |
| 2026-04-23 02:47 | 33.19711 | -117.70293 | 27743 ft | 477 kts | 145° |
| 2026-04-23 02:48 | 33.17213 | -117.67657 | 28042 ft | 480 kts | 144° |
| 2026-04-23 02:48 | 33.14756 | -117.64929 | 28361 ft | 484 kts | 143° |
| 2026-04-23 02:48 | 33.12294 | -117.62173 | 28663 ft | 487 kts | 143° |
| 2026-04-23 02:48 | 33.09808 | -117.59405 | 28945 ft | 490 kts | 143° |
| 2026-04-23 02:49 | 33.07312 | -117.56632 | 29228 ft | 493 kts | 144° |
| 2026-04-23 02:49 | 33.04796 | -117.53839 | 29508 ft | 495 kts | 144° |
| 2026-04-23 02:49 | 33.02266 | -117.51033 | 29782 ft | 498 kts | 144° |
| 2026-04-23 02:49 | 32.99723 | -117.48215 | 30049 ft | 501 kts | 144° |
| 2026-04-23 02:50 | 32.97168 | -117.45386 | 30285 ft | 504 kts | 144° |
| 2026-04-23 02:50 | 32.94588 | -117.42533 | 30501 ft | 507 kts | 144° |
| 2026-04-23 02:50 | 32.91999 | -117.39671 | 30714 ft | 510 kts | 144° |
| 2026-04-23 02:50 | 32.89394 | -117.36794 | 30933 ft | 512 kts | 144° |
| 2026-04-23 02:51 | 32.86777 | -117.33906 | 31155 ft | 515 kts | 145° |
| 2026-04-23 02:51 | 32.84147 | -117.31006 | 31374 ft | 517 kts | 145° |
| 2026-04-23 02:51 | 32.81506 | -117.28097 | 31601 ft | 519 kts | 145° |
| 2026-04-23 02:51 | 32.78842 | -117.25165 | 31828 ft | 522 kts | 145° |
| 2026-04-23 02:52 | 32.76178 | -117.22235 | 32032 ft | 524 kts | 145° |
| 2026-04-23 02:52 | 32.73499 | -117.19291 | 32276 ft | 526 kts | 145° |
| 2026-04-23 02:52 | 32.70809 | -117.16337 | 32580 ft | 526 kts | 145° |
| 2026-04-23 02:52 | 32.68120 | -117.13387 | 32867 ft | 526 kts | 145° |
| 2026-04-23 02:53 | 32.65532 | -117.10280 | 33140 ft | 532 kts | 140° |
| 2026-04-23 02:53 | 32.63032 | -117.07036 | 33428 ft | 533 kts | 140° |
| 2026-04-23 02:53 | 32.60543 | -117.03782 | 33706 ft | 533 kts | 140° |
| 2026-04-23 02:53 | 32.58054 | -117.00522 | 34008 ft | 533 kts | 140° |
| 2026-04-23 02:54 | 32.55564 | -116.97260 | 34242 ft | 534 kts | 140° |
| 2026-04-23 02:54 | 32.53052 | -116.94031 | 34536 ft | 532 kts | 141° |
| 2026-04-23 02:54 | 32.50539 | -116.90831 | 34826 ft | 530 kts | 141° |
| 2026-04-23 02:54 | 32.48034 | -116.87635 | 35105 ft | 529 kts | 141° |
| 2026-04-23 02:55 | 32.45535 | -116.84449 | 35373 ft | 527 kts | 141° |
| 2026-04-23 02:55 | 32.43044 | -116.81275 | 35653 ft | 525 kts | 141° |
| 2026-04-23 02:55 | 32.40559 | -116.78111 | 35930 ft | 523 kts | 141° |
| 2026-04-23 02:55 | 32.38084 | -116.74963 | 36195 ft | 522 kts | 141° |
| 2026-04-23 02:56 | 32.35615 | -116.71826 | 36440 ft | 520 kts | 141° |
| 2026-04-23 02:56 | 32.33149 | -116.68694 | 36677 ft | 519 kts | 141° |
| 2026-04-23 02:56 | 32.30691 | -116.65575 | 36840 ft | 518 kts | 141° |
| 2026-04-23 02:56 | 32.28239 | -116.62465 | 37074 ft | 516 kts | 141° |
| 2026-04-23 02:57 | 32.25787 | -116.59360 | 37163 ft | 517 kts | 142° |
| 2026-04-23 02:57 | 32.20902 | -116.53180 | 37126 ft | 514 kts | 142° |
| 2026-04-23 02:58 | 32.16010 | -116.47011 | 37121 ft | 514 kts | 142° |
| 2026-04-23 02:58 | 32.11125 | -116.40863 | 37125 ft | 514 kts | 142° |
| 2026-04-23 02:59 | 32.06228 | -116.34709 | 37130 ft | 515 kts | 142° |
| 2026-04-23 02:59 | 32.01324 | -116.28556 | 37114 ft | 515 kts | 142° |
| 2026-04-23 03:00 | 31.96413 | -116.22406 | 37116 ft | 515 kts | 142° |
| 2026-04-23 03:00 | 31.91500 | -116.16261 | 37113 ft | 516 kts | 142° |
| 2026-04-23 03:01 | 31.86579 | -116.10119 | 37106 ft | 516 kts | 142° |
| 2026-04-23 03:01 | 31.81658 | -116.03986 | 37103 ft | 515 kts | 142° |
| 2026-04-23 03:02 | 31.76732 | -115.97856 | 37095 ft | 516 kts | 142° |
| 2026-04-23 03:02 | 31.71799 | -115.91732 | 37091 ft | 515 kts | 142° |
| 2026-04-23 03:03 | 31.66868 | -115.85620 | 37085 ft | 515 kts | 142° |
| 2026-04-23 03:03 | 31.61933 | -115.79512 | 37080 ft | 516 kts | 142° |
| 2026-04-23 03:04 | 31.56945 | -115.73490 | 36964 ft | 501 kts | 159° |
| 2026-04-23 03:04 | 31.53913 | -115.72311 | 33708 ft | 453 kts | 193° |
| 2026-04-23 03:04 | 31.50532 | -115.72859 | 30658 ft | 511 kts | 194° |
| 2026-04-23 03:04 | 31.47129 | -115.72834 | 31964 ft | 467 kts | 182° |
| 2026-04-23 03:05 | 31.44130 | -115.72048 | 33741 ft | 427 kts | 172° |
| 2026-04-23 03:05 | 31.41437 | -115.70475 | 33748 ft | 451 kts | 155° |
| 2026-04-23 03:05 | 31.38920 | -115.68077 | 33237 ft | 482 kts | 144° |
| 2026-04-23 03:05 | 31.36564 | -115.65199 | 33097 ft | 500 kts | 132° |
| 2026-04-23 03:06 | 31.34705 | -115.61680 | 32893 ft | 518 kts | 117° |
| 2026-04-23 03:06 | 31.33536 | -115.57680 | 32606 ft | 527 kts | 106° |
| 2026-04-23 03:06 | 31.32634 | -115.53464 | 32382 ft | 540 kts | 105° |
| 2026-04-23 03:07 | 31.30753 | -115.44852 | 32586 ft | 548 kts | 111° |
| 2026-04-23 03:07 | 31.29367 | -115.40713 | 32828 ft | 545 kts | 121° |
| 2026-04-23 03:07 | 31.27315 | -115.37046 | 33086 ft | 534 kts | 137° |
| 2026-04-23 03:07 | 31.24776 | -115.33907 | 33307 ft | 532 kts | 140° |
| 2026-04-23 03:08 | 31.22224 | -115.30756 | 33544 ft | 534 kts | 140° |
| 2026-04-23 03:08 | 31.19666 | -115.27619 | 33851 ft | 533 kts | 140° |
| 2026-04-23 03:08 | 31.17102 | -115.24493 | 34139 ft | 533 kts | 140° |
| 2026-04-23 03:08 | 31.14539 | -115.21370 | 34437 ft | 532 kts | 141° |
| 2026-04-23 03:09 | 31.11984 | -115.18262 | 34753 ft | 530 kts | 141° |
| 2026-04-23 03:09 | 31.09438 | -115.15166 | 35051 ft | 528 kts | 141° |
| 2026-04-23 03:09 | 31.06898 | -115.12080 | 35343 ft | 526 kts | 141° |
| 2026-04-23 03:09 | 31.04368 | -115.09008 | 35600 ft | 524 kts | 141° |
| 2026-04-23 03:10 | 31.01846 | -115.05951 | 35860 ft | 522 kts | 141° |
| 2026-04-23 03:10 | 30.99327 | -115.02899 | 36078 ft | 522 kts | 141° |
| 2026-04-23 03:10 | 30.96815 | -114.99857 | 36305 ft | 521 kts | 141° |
| 2026-04-23 03:10 | 30.94306 | -114.96821 | 36571 ft | 519 kts | 142° |
| 2026-04-23 03:11 | 30.91806 | -114.93798 | 36825 ft | 517 kts | 142° |
| 2026-04-23 03:11 | 30.89311 | -114.90785 | 37002 ft | 516 kts | 142° |
| 2026-04-23 03:11 | 30.86826 | -114.87785 | 36968 ft | 514 kts | 142° |
| 2026-04-23 03:12 | 30.81875 | -114.81815 | 36970 ft | 513 kts | 142° |
| 2026-04-23 03:12 | 30.76911 | -114.75839 | 36960 ft | 514 kts | 142° |
| 2026-04-23 03:13 | 30.71940 | -114.69864 | 36955 ft | 514 kts | 142° |
| 2026-04-23 03:13 | 30.66970 | -114.63900 | 36956 ft | 514 kts | 142° |
| 2026-04-23 03:14 | 30.61991 | -114.57934 | 36956 ft | 514 kts | 142° |
| 2026-04-23 03:14 | 30.57016 | -114.51982 | 36961 ft | 514 kts | 142° |
| 2026-04-23 03:15 | 30.52033 | -114.46030 | 36959 ft | 514 kts | 142° |
| 2026-04-23 03:15 | 30.47047 | -114.40085 | 36960 ft | 514 kts | 142° |
| 2026-04-23 03:16 | 30.42897 | -114.35143 | 36960 ft | 515 kts | 142° |
| 2026-04-23 03:16 | 30.35401 | -114.26231 | 36960 ft | 515 kts | 142° |
| 2026-04-23 03:17 | 30.30399 | -114.20297 | 36965 ft | 515 kts | 142° |
| 2026-04-23 03:17 | 30.25391 | -114.14366 | 36962 ft | 515 kts | 142° |
| 2026-04-23 03:18 | 30.20383 | -114.08443 | 36967 ft | 515 kts | 142° |
| 2026-04-23 03:18 | 30.15373 | -114.02526 | 36964 ft | 515 kts | 142° |
| 2026-04-23 03:19 | 30.10359 | -113.96615 | 36968 ft | 515 kts | 142° |
| 2026-04-23 03:19 | 30.05338 | -113.90704 | 36968 ft | 515 kts | 142° |
| 2026-04-23 03:20 | 30.00314 | -113.84799 | 36970 ft | 516 kts | 142° |
| 2026-04-23 03:20 | 29.95286 | -113.78899 | 36970 ft | 516 kts | 142° |
| 2026-04-23 03:21 | 29.90255 | -113.73002 | 36967 ft | 516 kts | 142° |
| 2026-04-23 03:21 | 29.85217 | -113.67106 | 36970 ft | 516 kts | 142° |
| 2026-04-23 03:22 | 29.80193 | -113.61190 | 36966 ft | 519 kts | 139° |
| 2026-04-23 03:22 | 29.75416 | -113.54931 | 36970 ft | 520 kts | 139° |
| 2026-04-23 03:23 | 29.70605 | -113.48717 | 36971 ft | 520 kts | 139° |
| 2026-04-23 03:23 | 29.65786 | -113.42510 | 36971 ft | 520 kts | 139° |
| 2026-04-23 03:24 | 29.60965 | -113.36310 | 36972 ft | 520 kts | 139° |
| 2026-04-23 03:24 | 29.56144 | -113.30121 | 36971 ft | 520 kts | 139° |
| 2026-04-23 03:25 | 29.51322 | -113.23938 | 36976 ft | 520 kts | 139° |
| 2026-04-23 03:25 | 29.46496 | -113.17761 | 36976 ft | 520 kts | 139° |
| 2026-04-23 03:26 | 29.41668 | -113.11591 | 36973 ft | 520 kts | 139° |
| 2026-04-23 03:26 | 29.36839 | -113.05429 | 36972 ft | 519 kts | 139° |
| 2026-04-23 03:27 | 29.32006 | -112.99271 | 36975 ft | 519 kts | 139° |
| 2026-04-23 03:27 | 29.27173 | -112.93122 | 36976 ft | 519 kts | 139° |
| 2026-04-23 03:28 | 29.22341 | -112.86985 | 36974 ft | 519 kts | 139° |
| 2026-04-23 03:28 | 29.17512 | -112.80859 | 36974 ft | 518 kts | 139° |
| 2026-04-23 03:29 | 29.12681 | -112.74741 | 36979 ft | 518 kts | 139° |
| 2026-04-23 03:29 | 29.07849 | -112.68631 | 36977 ft | 518 kts | 139° |
| 2026-04-23 03:30 | 29.03020 | -112.62535 | 36980 ft | 517 kts | 139° |
| 2026-04-23 03:30 | 28.98188 | -112.56444 | 36976 ft | 517 kts | 139° |
| 2026-04-23 03:31 | 28.93355 | -112.50360 | 36973 ft | 517 kts | 139° |
| 2026-04-23 03:31 | 28.88519 | -112.44281 | 36971 ft | 517 kts | 139° |
| 2026-04-23 03:32 | 28.83681 | -112.38209 | 36976 ft | 517 kts | 139° |
| 2026-04-23 03:32 | 28.78850 | -112.32155 | 36963 ft | 516 kts | 139° |
| 2026-04-23 03:33 | 28.74008 | -112.26097 | 36975 ft | 517 kts | 139° |
| 2026-04-23 03:33 | 28.69169 | -112.20050 | 36977 ft | 516 kts | 139° |
| 2026-04-23 03:34 | 28.64294 | -112.13969 | 36965 ft | 516 kts | 139° |
| 2026-04-23 03:34 | 28.59450 | -112.07934 | 36975 ft | 516 kts | 139° |
| 2026-04-23 03:35 | 28.54602 | -112.01904 | 36975 ft | 516 kts | 138° |
| 2026-04-23 03:35 | 28.49754 | -111.95882 | 36972 ft | 516 kts | 138° |
| 2026-04-23 03:36 | 28.44903 | -111.89866 | 36969 ft | 516 kts | 138° |
| 2026-04-23 03:36 | 28.40045 | -111.83850 | 36972 ft | 516 kts | 139° |
| 2026-04-23 03:37 | 28.35189 | -111.77845 | 36972 ft | 516 kts | 138° |
| 2026-04-23 03:37 | 28.30331 | -111.71845 | 36974 ft | 516 kts | 138° |
| 2026-04-23 03:38 | 28.25471 | -111.65853 | 36972 ft | 516 kts | 138° |
| 2026-04-23 03:38 | 28.20607 | -111.59865 | 36972 ft | 516 kts | 138° |
| 2026-04-23 03:39 | 28.15743 | -111.53885 | 36973 ft | 516 kts | 138° |
| 2026-04-23 03:39 | 28.10876 | -111.47909 | 36973 ft | 516 kts | 138° |
| 2026-04-23 03:40 | 28.06010 | -111.41944 | 36973 ft | 516 kts | 138° |
| 2026-04-23 03:40 | 28.01141 | -111.35983 | 36973 ft | 515 kts | 138° |
| 2026-04-23 03:41 | 27.96271 | -111.30030 | 36971 ft | 515 kts | 138° |
| 2026-04-23 03:41 | 27.91401 | -111.24085 | 36972 ft | 515 kts | 138° |
| 2026-04-23 03:42 | 27.86530 | -111.18147 | 36970 ft | 515 kts | 138° |
| 2026-04-23 03:42 | 27.81657 | -111.12216 | 36966 ft | 515 kts | 138° |
| 2026-04-23 03:43 | 27.76784 | -111.06292 | 36969 ft | 515 kts | 138° |
| 2026-04-23 03:43 | 27.71907 | -111.00374 | 36968 ft | 515 kts | 138° |
| 2026-04-23 03:44 | 27.67030 | -110.94462 | 36967 ft | 514 kts | 138° |
| 2026-04-23 03:44 | 27.62153 | -110.88559 | 36964 ft | 514 kts | 138° |
| 2026-04-23 03:45 | 27.57270 | -110.82657 | 36968 ft | 514 kts | 138° |
| 2026-04-23 03:45 | 27.52389 | -110.76766 | 36967 ft | 514 kts | 138° |
| 2026-04-23 03:46 | 27.47507 | -110.70881 | 36969 ft | 514 kts | 138° |
| 2026-04-23 03:46 | 27.42623 | -110.65003 | 36968 ft | 514 kts | 138° |
| 2026-04-23 03:47 | 27.37737 | -110.59131 | 36968 ft | 514 kts | 138° |
| 2026-04-23 03:47 | 27.32852 | -110.53267 | 36969 ft | 514 kts | 138° |
| 2026-04-23 03:48 | 27.27962 | -110.47406 | 36971 ft | 514 kts | 138° |
| 2026-04-23 03:48 | 27.23073 | -110.41554 | 36971 ft | 513 kts | 138° |
| 2026-04-23 03:49 | 27.18183 | -110.35709 | 36967 ft | 514 kts | 138° |
| 2026-04-23 03:49 | 27.13284 | -110.29861 | 36968 ft | 514 kts | 138° |
| 2026-04-23 03:50 | 27.08389 | -110.24027 | 36971 ft | 513 kts | 138° |
| 2026-04-23 03:50 | 27.03491 | -110.18196 | 36970 ft | 513 kts | 138° |
| 2026-04-23 03:51 | 26.98594 | -110.12374 | 36968 ft | 513 kts | 138° |
| 2026-04-23 03:51 | 26.93696 | -110.06559 | 36970 ft | 513 kts | 138° |
| 2026-04-23 03:52 | 26.88829 | -110.00789 | 36972 ft | 513 kts | 138° |
| 2026-04-23 03:52 | 26.83930 | -109.94989 | 36969 ft | 512 kts | 138° |
| 2026-04-23 03:53 | 26.79032 | -109.89197 | 36973 ft | 512 kts | 138° |
| 2026-04-23 03:53 | 26.74101 | -109.83375 | 36975 ft | 512 kts | 138° |
| 2026-04-23 03:54 | 26.69204 | -109.77599 | 36975 ft | 512 kts | 138° |
| 2026-04-23 03:54 | 26.65128 | -109.72799 | 36973 ft | 512 kts | 138° |
| 2026-04-23 03:55 | 26.60229 | -109.67036 | 36974 ft | 511 kts | 138° |
| 2026-04-23 03:55 | 26.55329 | -109.61280 | 36973 ft | 511 kts | 137° |
| 2026-04-23 03:56 | 26.50425 | -109.55526 | 36973 ft | 511 kts | 137° |
| 2026-04-23 03:56 | 26.45523 | -109.49783 | 36975 ft | 511 kts | 137° |
| 2026-04-23 03:57 | 26.40624 | -109.44050 | 36972 ft | 510 kts | 137° |
| 2026-04-23 03:57 | 26.35724 | -109.38324 | 36973 ft | 510 kts | 137° |
| 2026-04-23 03:58 | 26.30822 | -109.32604 | 36977 ft | 510 kts | 137° |
| 2026-04-23 03:58 | 26.25920 | -109.26890 | 36980 ft | 510 kts | 137° |
| 2026-04-23 03:59 | 26.21021 | -109.21187 | 36979 ft | 510 kts | 137° |
| 2026-04-23 03:59 | 26.16116 | -109.15486 | 36980 ft | 509 kts | 137° |
| 2026-04-23 04:00 | 26.11219 | -109.09799 | 36978 ft | 509 kts | 137° |
| 2026-04-23 04:00 | 26.06316 | -109.04115 | 36975 ft | 509 kts | 137° |
| 2026-04-23 04:01 | 26.01413 | -108.98438 | 36976 ft | 509 kts | 137° |
| 2026-04-23 04:01 | 25.96512 | -108.92770 | 36982 ft | 508 kts | 137° |
| 2026-04-23 04:02 | 25.91611 | -108.87109 | 36981 ft | 508 kts | 137° |
| 2026-04-23 04:02 | 25.86713 | -108.81458 | 36978 ft | 508 kts | 137° |
| 2026-04-23 04:03 | 25.81812 | -108.75813 | 36977 ft | 507 kts | 137° |
| 2026-04-23 04:03 | 25.76918 | -108.70182 | 36979 ft | 506 kts | 137° |
| 2026-04-23 04:04 | 25.72030 | -108.64564 | 36984 ft | 506 kts | 137° |
| 2026-04-23 04:04 | 25.67143 | -108.58955 | 36980 ft | 505 kts | 137° |
| 2026-04-23 04:05 | 25.62265 | -108.53364 | 36973 ft | 504 kts | 137° |
| 2026-04-23 04:05 | 25.57394 | -108.47787 | 36982 ft | 503 kts | 137° |
| 2026-04-23 04:06 | 25.52525 | -108.42221 | 36980 ft | 503 kts | 137° |
| 2026-04-23 04:06 | 25.47655 | -108.36659 | 36974 ft | 503 kts | 137° |
| 2026-04-23 04:07 | 25.42788 | -108.31108 | 36980 ft | 502 kts | 137° |
| 2026-04-23 04:07 | 25.37919 | -108.25561 | 36982 ft | 502 kts | 137° |
| 2026-04-23 04:08 | 25.33051 | -108.20023 | 36986 ft | 502 kts | 137° |
| 2026-04-23 04:08 | 25.28181 | -108.14489 | 36984 ft | 502 kts | 137° |
| 2026-04-23 04:09 | 25.23311 | -108.08961 | 36990 ft | 502 kts | 137° |
| 2026-04-23 04:09 | 25.18438 | -108.03437 | 36987 ft | 502 kts | 137° |
| 2026-04-23 04:10 | 25.13568 | -107.97923 | 36988 ft | 502 kts | 137° |
| 2026-04-23 04:10 | 25.08693 | -107.92410 | 36988 ft | 502 kts | 137° |
| 2026-04-23 04:11 | 25.03815 | -107.86901 | 36990 ft | 502 kts | 137° |
| 2026-04-23 04:11 | 24.98909 | -107.81367 | 36984 ft | 500 kts | 137° |
| 2026-04-23 04:12 | 24.94239 | -107.76105 | 36990 ft | 501 kts | 137° |
| 2026-04-23 04:12 | 24.89355 | -107.70609 | 36994 ft | 502 kts | 137° |
| 2026-04-23 04:13 | 24.84471 | -107.65119 | 36996 ft | 502 kts | 137° |
| 2026-04-23 04:13 | 24.79586 | -107.59634 | 36998 ft | 502 kts | 137° |
| 2026-04-23 04:14 | 24.74729 | -107.54188 | 36997 ft | 502 kts | 137° |
| 2026-04-23 04:14 | 24.69807 | -107.48675 | 37001 ft | 502 kts | 137° |
| 2026-04-23 04:15 | 24.64917 | -107.43205 | 36998 ft | 502 kts | 137° |
| 2026-04-23 04:16 | 24.57584 | -107.35013 | 36994 ft | 501 kts | 137° |
| 2026-04-23 04:16 | 24.52693 | -107.29559 | 36995 ft | 501 kts | 137° |
| 2026-04-23 04:17 | 24.47801 | -107.24108 | 36992 ft | 501 kts | 137° |
| 2026-04-23 04:17 | 24.42911 | -107.18666 | 36995 ft | 500 kts | 137° |
| 2026-04-23 04:18 | 24.38020 | -107.13231 | 37000 ft | 501 kts | 137° |
| 2026-04-23 04:18 | 24.33128 | -107.07799 | 36997 ft | 500 kts | 137° |
| 2026-04-23 04:19 | 24.28240 | -107.02380 | 36992 ft | 499 kts | 137° |
| 2026-04-23 04:19 | 24.23353 | -106.96967 | 37001 ft | 499 kts | 137° |
| 2026-04-23 04:20 | 24.18469 | -106.91563 | 37001 ft | 499 kts | 137° |
| 2026-04-23 04:20 | 24.13581 | -106.86162 | 37008 ft | 499 kts | 137° |
| 2026-04-23 04:21 | 24.08701 | -106.80776 | 37005 ft | 498 kts | 137° |
| 2026-04-23 04:21 | 24.03815 | -106.75389 | 37002 ft | 498 kts | 137° |
| 2026-04-23 04:22 | 23.98934 | -106.70015 | 37014 ft | 498 kts | 137° |
| 2026-04-23 04:22 | 23.94051 | -106.64643 | 36998 ft | 497 kts | 137° |
| 2026-04-23 04:23 | 23.89174 | -106.59285 | 37005 ft | 497 kts | 137° |
| 2026-04-23 04:23 | 23.84296 | -106.53931 | 37001 ft | 497 kts | 137° |
| 2026-04-23 04:24 | 23.79414 | -106.48580 | 37002 ft | 497 kts | 137° |
| 2026-04-23 04:24 | 23.74531 | -106.43233 | 37008 ft | 497 kts | 137° |
| 2026-04-23 04:25 | 23.69649 | -106.37893 | 37014 ft | 497 kts | 137° |
| 2026-04-23 04:25 | 23.64765 | -106.32557 | 37014 ft | 497 kts | 137° |
| 2026-04-23 04:26 | 23.59879 | -106.27225 | 37012 ft | 497 kts | 137° |
| 2026-04-23 04:26 | 23.54992 | -106.21898 | 37014 ft | 497 kts | 137° |
| 2026-04-23 04:27 | 23.50107 | -106.16579 | 37017 ft | 496 kts | 137° |
| 2026-04-23 04:27 | 23.45223 | -106.11267 | 37015 ft | 496 kts | 137° |
| 2026-04-23 04:28 | 23.37894 | -106.03306 | 37020 ft | 496 kts | 137° |
| 2026-04-23 04:28 | 23.33004 | -105.98002 | 37019 ft | 496 kts | 137° |
| 2026-04-23 04:29 | 23.28117 | -105.92707 | 37020 ft | 496 kts | 138° |
| 2026-04-23 04:29 | 23.23225 | -105.87412 | 37029 ft | 496 kts | 138° |
| 2026-04-23 04:30 | 23.18336 | -105.82127 | 37025 ft | 495 kts | 138° |
| 2026-04-23 04:30 | 23.13450 | -105.76849 | 37026 ft | 495 kts | 138° |
| 2026-04-23 04:31 | 23.08563 | -105.71576 | 37021 ft | 496 kts | 138° |
| 2026-04-23 04:31 | 23.03668 | -105.66300 | 37025 ft | 496 kts | 138° |
| 2026-04-23 04:32 | 22.98776 | -105.61033 | 37028 ft | 495 kts | 138° |
| 2026-04-23 04:32 | 22.93881 | -105.55768 | 37032 ft | 495 kts | 138° |
| 2026-04-23 04:33 | 22.88984 | -105.50507 | 37032 ft | 495 kts | 138° |
| 2026-04-23 04:33 | 22.84919 | -105.46144 | 37024 ft | 496 kts | 138° |
| 2026-04-23 04:34 | 22.80015 | -105.40885 | 37025 ft | 495 kts | 138° |
| 2026-04-23 04:34 | 22.75077 | -105.35594 | 37035 ft | 496 kts | 138° |
| 2026-04-23 04:35 | 22.70182 | -105.30358 | 37043 ft | 495 kts | 139° |
| 2026-04-23 04:35 | 22.65276 | -105.25114 | 37039 ft | 495 kts | 139° |
| 2026-04-23 04:36 | 22.60410 | -105.19917 | 37054 ft | 495 kts | 139° |
| 2026-04-23 04:36 | 22.55510 | -105.14691 | 37044 ft | 495 kts | 139° |
| 2026-04-23 04:37 | 22.50562 | -105.09418 | 37031 ft | 496 kts | 139° |
| 2026-04-23 04:37 | 22.45694 | -105.04237 | 37062 ft | 495 kts | 139° |
| 2026-04-23 04:38 | 22.43368 | -105.01422 | 37048 ft | 498 kts | 127° |
| 2026-04-23 04:38 | 22.41564 | -104.98286 | 37075 ft | 499 kts | 124° |
| 2026-04-23 04:38 | 22.37793 | -104.91922 | 37061 ft | 500 kts | 126° |
| 2026-04-23 04:39 | 22.33608 | -104.85926 | 37012 ft | 500 kts | 117° |
| 2026-04-23 04:39 | 22.30356 | -104.79385 | 37067 ft | 500 kts | 121° |
| 2026-04-23 04:40 | 22.26646 | -104.72955 | 37074 ft | 501 kts | 122° |
| 2026-04-23 04:40 | 22.22907 | -104.66607 | 37067 ft | 501 kts | 122° |
| 2026-04-23 04:41 | 22.19157 | -104.60263 | 37078 ft | 501 kts | 122° |
| 2026-04-23 04:41 | 22.15410 | -104.53930 | 37069 ft | 500 kts | 122° |
| 2026-04-23 04:42 | 22.11660 | -104.47601 | 37074 ft | 501 kts | 122° |
| 2026-04-23 04:42 | 22.07934 | -104.41320 | 37075 ft | 501 kts | 122° |
| 2026-04-23 04:43 | 22.04146 | -104.34943 | 37084 ft | 502 kts | 122° |
| 2026-04-23 04:43 | 22.00376 | -104.28602 | 37090 ft | 502 kts | 122° |
| 2026-04-23 04:44 | 21.96608 | -104.22273 | 37079 ft | 502 kts | 122° |
| 2026-04-23 04:44 | 21.92871 | -104.16003 | 36753 ft | 497 kts | 122° |
| 2026-04-23 04:45 | 21.90995 | -104.12859 | 35952 ft | 500 kts | 122° |
| 2026-04-23 04:45 | 21.89088 | -104.09664 | 35238 ft | 502 kts | 122° |
| 2026-04-23 04:45 | 21.87199 | -104.06502 | 34627 ft | 501 kts | 123° |
| 2026-04-23 04:45 | 21.85325 | -104.03363 | 34185 ft | 496 kts | 122° |
| 2026-04-23 04:46 | 21.83492 | -104.00296 | 33663 ft | 492 kts | 123° |
| 2026-04-23 04:46 | 21.81626 | -103.97180 | 33162 ft | 487 kts | 123° |
| 2026-04-23 04:46 | 21.79818 | -103.94163 | 32536 ft | 486 kts | 123° |
| 2026-04-23 04:46 | 21.77947 | -103.91042 | 31558 ft | 494 kts | 123° |
| 2026-04-23 04:47 | 21.76073 | -103.87915 | 30576 ft | 501 kts | 123° |
| 2026-04-23 04:47 | 21.74169 | -103.84739 | 29567 ft | 508 kts | 123° |
| 2026-04-23 04:47 | 21.72243 | -103.81527 | 28560 ft | 512 kts | 123° |
| 2026-04-23 04:47 | 21.70329 | -103.78338 | 28127 ft | 503 kts | 123° |
| 2026-04-23 04:48 | 21.68447 | -103.75205 | 27645 ft | 495 kts | 123° |
| 2026-04-23 04:48 | 21.66612 | -103.72151 | 27117 ft | 490 kts | 123° |
| 2026-04-23 04:48 | 21.64491 | -103.69257 | 26499 ft | 485 kts | 138° |
| 2026-04-23 04:48 | 21.61818 | -103.67195 | 26004 ft | 475 kts | 156° |
| 2026-04-23 04:49 | 21.58765 | -103.65984 | 25578 ft | 464 kts | 166° |
| 2026-04-23 04:49 | 21.55645 | -103.64954 | 25065 ft | 461 kts | 165° |
| 2026-04-23 04:49 | 21.52594 | -103.63935 | 24557 ft | 458 kts | 165° |
| 2026-04-23 04:49 | 21.49598 | -103.62943 | 24070 ft | 455 kts | 165° |
| 2026-04-23 04:50 | 21.46539 | -103.61934 | 23565 ft | 452 kts | 165° |
| 2026-04-23 04:50 | 21.43545 | -103.60948 | 23001 ft | 449 kts | 165° |
| 2026-04-23 04:50 | 21.40615 | -103.59983 | 22516 ft | 444 kts | 165° |
| 2026-04-23 04:50 | 21.37675 | -103.59016 | 22054 ft | 439 kts | 165° |
| 2026-04-23 04:51 | 21.34792 | -103.57972 | 21550 ft | 437 kts | 157° |
| 2026-04-23 04:51 | 21.32246 | -103.56203 | 21045 ft | 437 kts | 137° |
| 2026-04-23 04:51 | 21.30360 | -103.53689 | 20663 ft | 432 kts | 120° |
| 2026-04-23 04:51 | 21.28911 | -103.50890 | 20258 ft | 427 kts | 119° |
| 2026-04-23 04:52 | 21.27442 | -103.48132 | 19813 ft | 425 kts | 120° |
| 2026-04-23 04:52 | 21.25981 | -103.45394 | 19375 ft | 422 kts | 120° |
| 2026-04-23 04:52 | 21.24528 | -103.42674 | 18940 ft | 418 kts | 121° |
| 2026-04-23 04:52 | 21.23088 | -103.39979 | 18523 ft | 414 kts | 121° |
| 2026-04-23 04:53 | 21.21660 | -103.37308 | 18063 ft | 411 kts | 121° |
| 2026-04-23 04:53 | 21.20242 | -103.34658 | 17603 ft | 408 kts | 121° |
| 2026-04-23 04:53 | 21.18837 | -103.32033 | 17173 ft | 404 kts | 121° |
| 2026-04-23 04:53 | 21.17444 | -103.29431 | 16753 ft | 400 kts | 121° |
| 2026-04-23 04:54 | 21.16065 | -103.26857 | 16337 ft | 397 kts | 120° |
| 2026-04-23 04:54 | 21.14699 | -103.24310 | 15961 ft | 392 kts | 120° |
| 2026-04-23 04:54 | 21.13369 | -103.21807 | 15789 ft | 382 kts | 120° |
| 2026-04-23 04:54 | 21.12072 | -103.19373 | 15636 ft | 372 kts | 120° |
| 2026-04-23 04:55 | 21.10800 | -103.17005 | 15474 ft | 362 kts | 123° |
| 2026-04-23 04:55 | 21.09198 | -103.14993 | 15308 ft | 351 kts | 137° |
| 2026-04-23 04:55 | 21.07477 | -103.13178 | 15155 ft | 345 kts | 135° |
| 2026-04-23 04:55 | 21.05769 | -103.11368 | 15002 ft | 345 kts | 136° |
| 2026-04-23 04:56 | 21.04059 | -103.09567 | 14840 ft | 344 kts | 136° |
| 2026-04-23 04:56 | 21.02355 | -103.07776 | 14656 ft | 343 kts | 136° |
| 2026-04-23 04:56 | 21.00654 | -103.05991 | 14459 ft | 342 kts | 135° |
| 2026-04-23 04:56 | 20.98962 | -103.04216 | 14231 ft | 340 kts | 135° |
| 2026-04-23 04:57 | 20.97278 | -103.02451 | 14051 ft | 336 kts | 135° |
| 2026-04-23 04:57 | 20.95615 | -103.00709 | 14002 ft | 324 kts | 135° |
| 2026-04-23 04:57 | 20.94050 | -102.99070 | 13954 ft | 316 kts | 135° |
| 2026-04-23 04:57 | 20.92454 | -102.97399 | 13895 ft | 327 kts | 135° |
| 2026-04-23 04:58 | 20.90811 | -102.95679 | 13793 ft | 334 kts | 135° |
| 2026-04-23 04:58 | 20.89145 | -102.93936 | 13685 ft | 336 kts | 135° |
| 2026-04-23 04:58 | 20.87477 | -102.92190 | 13672 ft | 336 kts | 135° |
| 2026-04-23 04:58 | 20.85781 | -102.90417 | 13672 ft | 336 kts | 135° |
| 2026-04-23 04:59 | 20.84109 | -102.88670 | 13672 ft | 336 kts | 135° |
| 2026-04-23 04:59 | 20.82435 | -102.86920 | 13671 ft | 336 kts | 135° |
| 2026-04-23 04:59 | 20.80764 | -102.85177 | 13669 ft | 336 kts | 135° |
| 2026-04-23 04:59 | 20.79093 | -102.83431 | 13673 ft | 335 kts | 135° |
| 2026-04-23 05:00 | 20.77461 | -102.81727 | 13669 ft | 321 kts | 135° |
| 2026-04-23 05:00 | 20.75894 | -102.80093 | 13670 ft | 308 kts | 135° |
| 2026-04-23 05:00 | 20.74393 | -102.78535 | 13667 ft | 295 kts | 137° |
| 2026-04-23 05:00 | 20.72684 | -102.77398 | 13648 ft | 289 kts | 161° |
| 2026-04-23 05:01 | 20.70703 | -102.77151 | 13610 ft | 289 kts | 186° |
| 2026-04-23 05:01 | 20.68777 | -102.77773 | 13217 ft | 293 kts | 210° |
| 2026-04-23 05:01 | 20.67120 | -102.79060 | 12764 ft | 296 kts | 218° |
| 2026-04-23 05:01 | 20.65474 | -102.80408 | 12296 ft | 300 kts | 218° |
| 2026-04-23 05:02 | 20.63812 | -102.81779 | 11830 ft | 304 kts | 218° |
| 2026-04-23 05:02 | 20.62131 | -102.83172 | 11396 ft | 307 kts | 219° |
| 2026-04-23 05:02 | 20.60453 | -102.84567 | 11102 ft | 304 kts | 219° |
| 2026-04-23 05:02 | 20.58816 | -102.85931 | 10884 ft | 299 kts | 220° |
| 2026-04-23 05:03 | 20.57167 | -102.87304 | 10665 ft | 294 kts | 219° |
| 2026-04-23 05:03 | 20.55585 | -102.88610 | 10467 ft | 289 kts | 221° |
| 2026-04-23 05:03 | 20.53997 | -102.89933 | 10270 ft | 282 kts | 221° |
| 2026-04-23 05:03 | 20.52490 | -102.91191 | 10083 ft | 276 kts | 220° |
| 2026-04-23 05:04 | 20.50999 | -102.92431 | 9901 ft | 268 kts | 221° |
| 2026-04-23 05:04 | 20.49552 | -102.93639 | 9768 ft | 261 kts | 221° |
| 2026-04-23 05:04 | 20.48135 | -102.94819 | 9589 ft | 256 kts | 220° |
| 2026-04-23 05:04 | 20.46744 | -102.95966 | 9399 ft | 250 kts | 220° |
| 2026-04-23 05:05 | 20.45378 | -102.97099 | 9228 ft | 248 kts | 220° |
| 2026-04-23 05:05 | 20.44058 | -102.98195 | 9148 ft | 233 kts | 220° |
| 2026-04-23 05:05 | 20.42808 | -102.99224 | 8978 ft | 222 kts | 220° |
| 2026-04-23 05:05 | 20.41621 | -103.00211 | 8807 ft | 210 kts | 220° |
| 2026-04-23 05:06 | 20.40711 | -103.01326 | 8721 ft | 195 kts | 249° |
| 2026-04-23 05:06 | 20.40534 | -103.02649 | 8695 ft | 189 kts | 281° |
| 2026-04-23 05:06 | 20.40900 | -103.04002 | 8799 ft | 192 kts | 291° |
| 2026-04-23 05:06 | 20.41397 | -103.05327 | 8832 ft | 193 kts | 293° |
| 2026-04-23 05:07 | 20.41928 | -103.06634 | 8827 ft | 192 kts | 294° |
| 2026-04-23 05:07 | 20.42297 | -103.07520 | 8843 ft | 192 kts | 294° |
| 2026-04-23 05:07 | 20.42840 | -103.08822 | 8841 ft | 192 kts | 294° |
| 2026-04-23 05:07 | 20.43384 | -103.10123 | 8887 ft | 192 kts | 294° |
| 2026-04-23 05:08 | 20.43933 | -103.11434 | 8640 ft | 194 kts | 294° |
| 2026-04-23 05:08 | 20.44476 | -103.12730 | 8384 ft | 191 kts | 294° |
| 2026-04-23 05:08 | 20.45015 | -103.14014 | 8168 ft | 189 kts | 294° |
| 2026-04-23 05:08 | 20.45542 | -103.15271 | 7908 ft | 181 kts | 294° |
| 2026-04-23 05:09 | 20.46045 | -103.16472 | 7664 ft | 174 kts | 293° |
| 2026-04-23 05:09 | 20.46534 | -103.17638 | 7458 ft | 169 kts | 293° |
| 2026-04-23 05:09 | 20.47004 | -103.18759 | 7259 ft | 162 kts | 293° |
| 2026-04-23 05:09 | 20.47458 | -103.19844 | 7041 ft | 159 kts | 293° |
| 2026-04-23 05:10 | 20.47908 | -103.20918 | 6835 ft | 158 kts | 292° |
| 2026-04-23 05:10 | 20.48350 | -103.21972 | 6631 ft | 158 kts | 292° |
| 2026-04-23 05:10 | 20.48797 | -103.23039 | 6404 ft | 158 kts | 292° |
| 2026-04-23 05:10 | 20.49255 | -103.24123 | 6270 ft | 159 kts | 291° |
| 2026-04-23 05:11 | 20.49695 | -103.25186 | 6109 ft | 159 kts | 292° |
| 2026-04-23 05:11 | 20.50151 | -103.26268 | 5871 ft | 160 kts | 294° |
| 2026-04-23 05:11 | 20.50605 | -103.27353 | 5583 ft | 161 kts | 292° |
| 2026-04-23 05:11 | 20.51063 | -103.28444 | 5244 ft | 162 kts | 293° |
| 2026-04-23 05:12 | 20.51519 | -103.29531 | 5038 ft | 155 kts | 292° |
| 2026-04-23 05:12 | 20.51917 | -103.30475 | 5028 ft | 120 kts | 293° |
| 2026-04-23 05:12 | 20.52174 | -103.31093 | 5030 ft | 65 kts | 294° |
| 2026-04-23 05:12 | 20.52301 | -103.31388 | 5029 ft | 21 kts | 302° |
| 2026-04-23 05:13 | 20.52386 | -103.31490 | 5033 ft | 19 kts | 317° |
| 2026-04-23 05:13 | 20.52492 | -103.31578 | 5032 ft | 20 kts | 325° |
| 2026-04-23 05:13 | 20.52615 | -103.31565 | 5031 ft | 18 kts | 24° |
| 2026-04-23 05:14 | 20.52762 | -103.31449 | 5031 ft | 12 kts | 103° |
| 2026-04-23 05:14 | 20.52728 | -103.31364 | 5031 ft | 13 kts | 114° |
| 2026-04-23 05:14 | 20.52690 | -103.31275 | 5029 ft | 14 kts | 114° |
| 2026-04-23 05:14 | 20.52651 | -103.31181 | 5031 ft | 14 kts | 114° |
| 2026-04-23 05:15 | 20.52624 | -103.31116 | 5031 ft | 15 kts | 114° |
| 2026-04-23 05:15 | 20.52581 | -103.31013 | 5031 ft | 16 kts | 114° |
| 2026-04-23 05:15 | 20.52535 | -103.30905 | 5031 ft | 16 kts | 114° |
| 2026-04-23 05:15 | 20.52488 | -103.30793 | 5025 ft | 17 kts | 114° |
| 2026-04-23 05:16 | 20.52439 | -103.30674 | 5027 ft | 18 kts | 114° |
| 2026-04-23 05:16 | 20.52370 | -103.30511 | 5030 ft | 18 kts | 114° |
| 2026-04-23 05:16 | 20.52353 | -103.30465 | 5028 ft | 8 kts | 97° |
| 2026-04-23 05:16 | 20.52378 | -103.30431 | 5031 ft | 5 kts | 24° |
| 2026-04-23 05:17 | 20.52412 | -103.30418 | 5031 ft | 6 kts | 20° |
| 2026-04-23 05:17 | 20.52453 | -103.30394 | 5029 ft | 7 kts | 59° |
| 2026-04-23 05:17 | 20.52443 | -103.30334 | 5031 ft | 9 kts | 109° |
| 2026-04-23 05:17 | 20.52420 | -103.30264 | 5029 ft | 10 kts | 109° |
| 2026-04-23 05:18 | 20.52404 | -103.30198 | 5031 ft | 8 kts | 101° |
| 2026-04-23 05:18 | 20.52390 | -103.30144 | 5031 ft | 7 kts | 109° |
| 2026-04-23 05:18 | 20.52375 | -103.30100 | 5029 ft | 6 kts | 109° |
| 2026-04-23 05:18 | 20.52363 | -103.30064 | 5028 ft | 4 kts | 103° |
| 2026-04-23 05:19 | 20.52369 | -103.30047 | 5031 ft | 1 kts | 44° |
| 2026-04-23 05:19 | 20.52375 | -103.30043 | 5031 ft | 1 kts | 32° |
| 2026-04-23 05:19 | 20.52384 | -103.30039 | 5031 ft | 2 kts | 20° |
| 2026-04-23 05:19 | 20.52400 | -103.30033 | 5031 ft | 3 kts | 19° |
| 2026-04-23 05:20 | 20.52415 | -103.30028 | 5031 ft | 0 kts | 19° |
| 2026-04-23 05:20 | 20.52416 | -103.30028 | 5031 ft | 0 kts | 19° |
| 2026-04-23 05:24 | 20.52415 | -103.30028 | 5031 ft | 0 kts | 19° |